Time;durP1;ratioP1;P1;durP2;ratioP2;P2;SDS_P1;SDS_P2;PMS_P1;PMS_P2;Temp;Humidity;BMP_temperature;BMP_pressure;BME280_temperature;BME280_humidity;BME280_pressure;Samples;Min_cycle;Max_cycle;Signal;HPM_P1;HPM_P2
2022/07/09 00:00:29;;;;;;;0.00;0.00;;;16.20;99.90;;;;;;5114950;28;20043;-81
2022/07/09 00:02:55;;;;;;;0.40;0.35;;;16.20;99.90;;;;;;5115127;28;20039;-81
2022/07/09 00:05:21;;;;;;;0.00;0.00;;;16.20;99.90;;;;;;5097635;28;20432;-81
2022/07/09 00:07:46;;;;;;;0.00;0.00;;;16.20;99.90;;;;;;5114490;28;20040;-81
2022/07/09 00:10:12;;;;;;;0.00;0.00;;;16.20;99.90;;;;;;5080158;28;20055;-81
2022/07/09 00:12:38;;;;;;;0.00;0.00;;;16.20;99.90;;;;;;5114060;28;20055;-81
2022/07/09 00:15:04;;;;;;;0.10;0.10;;;16.20;99.90;;;;;;5097062;28;20056;-81
2022/07/09 00:17:30;;;;;;;0.10;0.10;;;16.20;99.90;;;;;;5097576;28;20051;-81
2022/07/09 00:19:56;;;;;;;0.03;0.00;;;16.20;99.90;;;;;;5114699;28;20046;-80
2022/07/09 00:22:22;;;;;;;4.20;0.10;;;16.20;99.90;;;;;;5114353;28;20051;-80
2022/07/09 00:24:48;;;;;;;0.00;0.00;;;16.20;99.90;;;;;;5114665;28;20055;-80
2022/07/09 00:27:13;;;;;;;0.00;0.00;;;16.10;99.90;;;;;;5114116;28;20507;-80
2022/07/09 00:29:39;;;;;;;0.00;0.00;;;16.10;99.90;;;;;;5114374;28;20392;-80
2022/07/09 00:32:05;;;;;;;0.00;0.00;;;16.00;99.90;;;;;;5096805;28;20070;-80
2022/07/09 00:34:32;;;;;;;0.00;0.00;;;16.10;99.90;;;;;;5097826;28;20437;-81
2022/07/09 00:36:57;;;;;;;0.00;0.00;;;16.10;99.90;;;;;;5096736;28;20078;-81
2022/07/09 00:39:23;;;;;;;0.00;0.00;;;16.10;99.90;;;;;;5097176;28;20491;-81
2022/07/09 00:41:49;;;;;;;0.00;0.00;;;16.10;99.90;;;;;;5114236;28;20180;-81
2022/07/09 00:44:14;;;;;;;0.10;0.10;;;16.20;99.90;;;;;;5096950;28;20039;-80
2022/07/09 00:46:40;;;;;;;0.00;0.00;;;16.20;99.90;;;;;;5097105;28;20496;-81
2022/07/09 00:49:06;;;;;;;0.22;0.15;;;16.20;99.90;;;;;;5113979;28;20136;-81
2022/07/09 00:51:32;;;;;;;0.10;0.10;;;16.20;99.90;;;;;;5096496;28;20403;-80
2022/07/09 00:54:00;;;;;;;0.00;0.00;;;16.20;99.90;;;;;;5113859;28;20142;-80
2022/07/09 00:56:28;;;;;;;0.00;0.00;;;16.20;99.90;;;;;;5096390;28;20142;-80
2022/07/09 00:58:54;;;;;;;0.00;0.00;;;16.30;99.90;;;;;;5096913;28;20544;-81
2022/07/09 01:01:20;;;;;;;0.00;0.00;;;16.20;99.90;;;;;;5096733;28;20079;-80
2022/07/09 01:03:46;;;;;;;0.00;0.00;;;16.30;99.90;;;;;;5113895;28;20075;-80
2022/07/09 01:06:11;;;;;;;0.00;0.00;;;16.20;99.90;;;;;;5114109;28;20043;-80
2022/07/09 01:08:37;;;;;;;0.00;0.00;;;16.30;99.90;;;;;;5079626;28;20052;-80
2022/07/09 01:11:03;;;;;;;0.00;0.00;;;16.30;99.90;;;;;;5113937;27;20040;-80
2022/07/09 01:13:29;;;;;;;0.00;0.00;;;16.40;99.90;;;;;;5099142;27;20053;-80
2022/07/09 01:15:55;;;;;;;0.00;0.00;;;16.30;99.90;;;;;;5116336;27;20050;-80
2022/07/09 01:18:21;;;;;;;0.00;0.00;;;16.30;99.90;;;;;;5099844;27;20043;-80
2022/07/09 01:20:46;;;;;;;2.28;0.55;;;16.30;99.90;;;;;;5116190;27;20055;-80
2022/07/09 01:23:12;;;;;;;0.00;0.00;;;16.30;99.90;;;;;;5116574;27;20051;-80
2022/07/09 01:25:41;;;;;;;3.65;0.15;;;16.30;99.90;;;;;;5099321;27;20062;-80
2022/07/09 01:28:08;;;;;;;0.00;0.00;;;16.30;99.90;;;;;;5099674;27;20054;-80
2022/07/09 01:30:35;;;;;;;0.00;0.00;;;16.30;99.90;;;;;;5116784;27;20058;-81
2022/07/09 01:33:01;;;;;;;0.00;0.00;;;16.30;99.90;;;;;;5099375;27;20039;-80
2022/07/09 01:35:27;;;;;;;0.00;0.00;;;16.30;99.90;;;;;;5116637;27;20051;-80
2022/07/09 01:37:53;;;;;;;0.00;0.00;;;16.20;99.90;;;;;;5116768;28;20050;-80
2022/07/09 01:40:20;;;;;;;0.00;0.00;;;16.20;99.90;;;;;;5099189;28;20486;-80
2022/07/09 01:42:47;;;;;;;0.00;0.00;;;16.20;99.90;;;;;;5098919;28;20406;-80
2022/07/09 01:45:13;;;;;;;0.00;0.00;;;16.20;99.90;;;;;;5099838;28;20187;-80
2022/07/09 01:47:38;;;;;;;0.00;0.00;;;16.20;99.90;;;;;;5116519;28;20479;-80
2022/07/09 01:50:05;;;;;;;0.00;0.00;;;16.20;99.90;;;;;;5116439;28;20039;-80
2022/07/09 01:52:31;;;;;;;0.00;0.00;;;16.20;99.90;;;;;;5116368;28;20126;-80
2022/07/09 01:54:57;;;;;;;0.00;0.00;;;16.20;99.90;;;;;;5116548;28;20130;-81
2022/07/09 01:57:22;;;;;;;0.00;0.00;;;16.20;99.90;;;;;;5099505;28;20045;-81
2022/07/09 01:59:48;;;;;;;0.00;0.00;;;16.20;99.90;;;;;;5116398;28;20078;-80
2022/07/09 02:02:14;;;;;;;0.00;0.00;;;16.20;99.90;;;;;;5116561;28;20078;-80
2022/07/09 02:04:39;;;;;;;0.00;0.00;;;16.20;99.90;;;;;;5099093;28;20487;-80
2022/07/09 02:07:05;;;;;;;0.77;0.10;;;16.20;99.90;;;;;;5099490;28;20219;-80
2022/07/09 02:09:31;;;;;;;0.43;0.08;;;16.20;99.90;;;;;;5098943;28;20491;-81
2022/07/09 02:11:56;;;;;;;0.80;0.38;;;16.20;99.90;;;;;;5115688;28;20062;-81
2022/07/09 02:14:22;;;;;;;0.00;0.00;;;16.20;99.90;;;;;;5116879;28;20062;-81
2022/07/09 02:16:48;;;;;;;0.10;0.00;;;16.20;99.90;;;;;;5099330;28;20073;-81
2022/07/09 02:19:14;;;;;;;0.00;0.00;;;16.10;99.90;;;;;;5116253;28;20478;-80
2022/07/09 02:21:40;;;;;;;0.00;0.00;;;16.20;99.90;;;;;;5116360;28;20043;-81
2022/07/09 02:24:06;;;;;;;0.00;0.00;;;16.10;99.90;;;;;;5099226;28;20072;-81
2022/07/09 02:26:32;;;;;;;0.00;0.00;;;16.10;99.90;;;;;;5099106;28;20047;-80
2022/07/09 02:28:59;;;;;;;0.00;0.00;;;16.10;99.90;;;;;;5116786;28;20051;-80
2022/07/09 02:31:25;;;;;;;0.00;0.00;;;16.10;99.90;;;;;;5116089;28;20074;-81
2022/07/09 02:33:53;;;;;;;0.00;0.00;;;16.10;99.90;;;;;;5116838;27;20050;-81
2022/07/09 02:36:19;;;;;;;0.00;0.00;;;16.10;99.90;;;;;;5120002;27;20131;-80
2022/07/09 02:38:44;;;;;;;0.00;0.00;;;16.10;99.90;;;;;;5119927;27;20035;-81
2022/07/09 02:41:10;;;;;;;0.52;0.25;;;16.10;99.90;;;;;;5102153;27;20051;-81
2022/07/09 02:43:36;;;;;;;0.00;0.00;;;16.10;99.90;;;;;;5119960;27;20429;-81
2022/07/09 02:46:03;;;;;;;0.00;0.00;;;16.20;99.90;;;;;;5120253;27;20475;-81
2022/07/09 02:48:29;;;;;;;0.55;0.00;;;16.10;99.90;;;;;;5102655;27;20039;-81
2022/07/09 02:50:55;;;;;;;0.00;0.00;;;16.20;99.90;;;;;;5102756;27;20474;-80
2022/07/09 02:53:21;;;;;;;0.00;0.00;;;16.10;99.90;;;;;;5102199;27;20126;-81
2022/07/09 02:55:47;;;;;;;0.15;0.00;;;16.10;99.90;;;;;;5119549;27;20078;-81
2022/07/09 02:58:13;;;;;;;0.00;0.00;;;16.10;99.90;;;;;;5119610;27;20443;-81
2022/07/09 03:00:39;;;;;;;0.00;0.00;;;16.10;99.90;;;;;;5119361;27;20043;-81
2022/07/09 03:03:06;;;;;;;0.00;0.00;;;16.10;99.90;;;;;;5102052;27;20087;-80
2022/07/09 03:05:31;;;;;;;0.00;0.00;;;16.10;99.90;;;;;;5119362;27;20054;-81
2022/07/09 03:07:57;;;;;;;0.00;0.00;;;16.10;99.90;;;;;;5119307;27;20382;-80
2022/07/09 03:10:23;;;;;;;0.00;0.00;;;16.10;99.90;;;;;;5119198;27;20043;-81
2022/07/09 03:12:49;;;;;;;0.00;0.00;;;16.10;99.90;;;;;;5115362;28;20154;-80
2022/07/09 03:15:16;;;;;;;0.00;0.00;;;16.10;99.90;;;;;;5098362;28;20499;-81
2022/07/09 03:17:46;;;;;;;0.00;0.00;;;16.10;99.90;;;;;;5115791;28;20039;-81
2022/07/09 03:20:13;;;;;;;0.00;0.00;;;16.10;99.90;;;;;;5115678;28;20036;-81
2022/07/09 03:22:38;;;;;;;0.00;0.00;;;16.10;99.90;;;;;;5114914;28;20043;-81
2022/07/09 03:25:05;;;;;;;0.00;0.00;;;16.10;99.90;;;;;;5113437;28;20070;-80
2022/07/09 03:27:31;;;;;;;0.20;0.20;;;16.10;99.90;;;;;;5114413;28;20047;-80
2022/07/09 03:29:57;;;;;;;0.10;0.10;;;16.10;99.90;;;;;;5098484;28;20437;-80
2022/07/09 03:32:22;;;;;;;0.00;0.00;;;16.10;99.90;;;;;;5097403;28;20051;-80
2022/07/09 03:34:48;;;;;;;0.00;0.00;;;16.10;99.90;;;;;;5098430;28;20052;-81
2022/07/09 03:37:14;;;;;;;0.00;0.00;;;16.10;99.90;;;;;;5081222;28;20209;-80
2022/07/09 03:39:40;;;;;;;0.00;0.00;;;16.10;99.90;;;;;;5098462;28;20056;-81
2022/07/09 03:42:06;;;;;;;0.10;0.10;;;16.10;99.90;;;;;;5098260;28;20038;-81
2022/07/09 03:44:35;;;;;;;0.10;0.10;;;16.20;99.90;;;;;;5097829;28;20483;-80
2022/07/09 03:47:01;;;;;;;0.00;0.00;;;16.20;99.90;;;;;;5115286;28;20083;-81
2022/07/09 03:49:27;;;;;;;0.10;0.10;;;16.20;99.90;;;;;;5114773;28;20455;-80
2022/07/09 03:51:53;;;;;;;0.00;0.00;;;16.20;99.90;;;;;;5080794;28;20091;-81
2022/07/09 03:54:18;;;;;;;0.00;0.00;;;16.10;99.90;;;;;;5115670;28;20441;-81
2022/07/09 03:56:45;;;;;;;0.00;0.00;;;16.10;99.90;;;;;;5115228;28;20044;-81
2022/07/09 03:59:10;;;;;;;0.00;0.00;;;16.20;99.90;;;;;;5097896;28;20054;-81
2022/07/09 04:01:37;;;;;;;0.00;0.00;;;16.20;99.90;;;;;;5114912;28;20051;-81
2022/07/09 04:04:03;;;;;;;0.00;0.00;;;16.20;99.90;;;;;;5114958;28;20048;-81
2022/07/09 04:06:29;;;;;;;0.00;0.00;;;16.20;99.90;;;;;;5080703;28;20043;-80
2022/07/09 04:08:55;;;;;;;0.00;0.00;;;16.20;99.90;;;;;;5114561;28;20066;-81
2022/07/09 04:11:21;;;;;;;0.00;0.00;;;16.20;99.90;;;;;;5115660;27;20040;-80
2022/07/09 04:13:47;;;;;;;0.00;0.00;;;16.40;99.90;;;;;;5100847;27;20059;-81
2022/07/09 04:16:13;;;;;;;0.00;0.00;;;16.10;99.90;;;;;;5117942;27;20061;-80
2022/07/09 04:18:42;;;;;;;0.00;0.00;;;16.10;99.90;;;;;;5100982;27;20467;-81
2022/07/09 04:21:10;;;;;;;1.55;0.45;;;16.10;99.90;;;;;;5117786;27;20130;-80
2022/07/09 04:23:36;;;;;;;0.00;0.00;;;16.10;99.90;;;;;;5117842;27;20046;-81
2022/07/09 04:26:02;;;;;;;0.00;0.00;;;16.10;99.90;;;;;;5117782;27;20390;-80
2022/07/09 04:28:28;;;;;;;0.00;0.00;;;16.10;99.90;;;;;;5117678;27;20043;-80
2022/07/09 04:30:53;;;;;;;0.00;0.00;;;16.20;99.90;;;;;;5117735;27;20050;-81
2022/07/09 04:33:19;;;;;;;0.00;0.00;;;16.20;99.90;;;;;;5117541;27;20452;-81
2022/07/09 04:35:45;;;;;;;0.52;0.20;;;16.20;99.90;;;;;;5117594;27;20042;-81
2022/07/09 04:38:14;;;;;;;0.10;0.10;;;16.20;99.90;;;;;;5117448;27;20042;-81
2022/07/09 04:40:40;;;;;;;0.00;0.00;;;16.20;99.90;;;;;;5099953;27;20383;-81
2022/07/09 04:43:08;;;;;;;0.00;0.00;;;16.30;99.90;;;;;;5100835;27;20091;-81
2022/07/09 04:45:34;;;;;;;0.10;0.10;;;16.30;99.90;;;;;;5099841;27;20055;-80
2022/07/09 04:48:00;;;;;;;0.00;0.00;;;16.30;99.90;;;;;;5117263;27;20084;-81
2022/07/09 04:50:26;;;;;;;0.00;0.00;;;16.30;99.90;;;;;;5100326;27;20047;-80
2022/07/09 04:52:52;;;;;;;0.00;0.00;;;16.30;99.90;;;;;;5116980;27;20478;-81
2022/07/09 04:55:18;;;;;;;0.10;0.10;;;16.40;99.90;;;;;;5099946;27;20448;-81
2022/07/09 04:57:44;;;;;;;0.00;0.00;;;16.40;99.90;;;;;;5116748;27;20360;-81
2022/07/09 05:00:11;;;;;;;0.00;0.00;;;16.40;99.90;;;;;;5099835;27;20125;-80
2022/07/09 05:02:39;;;;;;;0.00;0.00;;;16.40;99.90;;;;;;5117143;27;20431;-80
2022/07/09 05:05:06;;;;;;;0.00;0.00;;;16.40;99.90;;;;;;5117615;27;20177;-81
2022/07/09 05:07:33;;;;;;;0.00;0.00;;;16.50;99.90;;;;;;5099651;27;20570;-80
2022/07/09 05:10:02;;;;;;;0.00;0.00;;;16.50;99.90;;;;;;5099755;27;20141;-80
2022/07/09 05:12:30;;;;;;;2.88;0.55;;;16.50;99.90;;;;;;5116603;27;20525;-80
2022/07/09 05:14:56;;;;;;;0.00;0.00;;;16.60;99.90;;;;;;5099943;27;20051;-80
2022/07/09 05:17:23;;;;;;;0.00;0.00;;;16.60;99.90;;;;;;5099851;27;20126;-80
2022/07/09 05:19:51;;;;;;;0.00;0.00;;;16.60;99.90;;;;;;5099850;27;20494;-81
2022/07/09 05:22:17;;;;;;;0.05;0.00;;;16.70;99.90;;;;;;5099925;27;20039;-81
2022/07/09 05:24:43;;;;;;;0.00;0.00;;;16.80;99.90;;;;;;5116873;27;20444;-81
2022/07/09 05:27:09;;;;;;;0.00;0.00;;;16.80;99.90;;;;;;5099749;27;20414;-81
2022/07/09 05:29:36;;;;;;;0.00;0.00;;;16.80;99.90;;;;;;5099798;27;20133;-81
2022/07/09 05:32:03;;;;;;;0.10;0.10;;;16.80;99.90;;;;;;5116475;27;20474;-80
2022/07/09 05:34:28;;;;;;;0.00;0.00;;;16.80;99.90;;;;;;5098996;27;20051;-80
2022/07/09 05:36:57;;;;;;;0.00;0.00;;;16.80;99.90;;;;;;5099601;28;20146;-80
2022/07/09 05:39:23;;;;;;;0.00;0.00;;;16.80;99.90;;;;;;5099363;28;20131;-80
2022/07/09 05:41:49;;;;;;;0.00;0.00;;;16.80;99.90;;;;;;5099597;28;20502;-80
2022/07/09 05:44:15;;;;;;;0.10;0.10;;;16.80;99.90;;;;;;5098733;28;20174;-80
2022/07/09 05:46:41;;;;;;;0.00;0.00;;;16.90;99.90;;;;;;5099266;28;20059;-80
2022/07/09 05:49:07;;;;;;;0.00;0.00;;;17.00;99.90;;;;;;5099636;28;20043;-81
2022/07/09 05:51:33;;;;;;;0.00;0.00;;;17.00;99.90;;;;;;5116434;28;20039;-80
2022/07/09 05:53:59;;;;;;;0.00;0.00;;;17.00;99.90;;;;;;5116612;28;20051;-80
2022/07/09 05:56:24;;;;;;;0.08;0.08;;;17.10;99.90;;;;;;5115631;28;20395;-80
2022/07/09 05:58:50;;;;;;;0.00;0.00;;;17.10;99.90;;;;;;5116449;28;20089;-81
2022/07/09 06:01:16;;;;;;;0.00;0.00;;;17.20;99.90;;;;;;5099225;28;20046;-81
2022/07/09 06:03:42;;;;;;;0.00;0.00;;;17.20;99.90;;;;;;5099637;28;20074;-80
2022/07/09 06:06:09;;;;;;;0.30;0.20;;;17.20;99.90;;;;;;5098930;28;20066;-80
2022/07/09 06:08:35;;;;;;;0.00;0.00;;;17.30;99.90;;;;;;5099580;27;20138;-80
2022/07/09 06:11:01;;;;;;;0.10;0.00;;;17.30;99.90;;;;;;5120381;27;20138;-81
2022/07/09 06:13:27;;;;;;;0.15;0.15;;;17.30;99.90;;;;;;5119822;27;20065;-81
2022/07/09 06:15:52;;;;;;;0.00;0.00;;;17.40;99.90;;;;;;5120508;27;20039;-81
2022/07/09 06:18:18;;;;;;;0.00;0.00;;;17.40;99.90;;;;;;5120240;27;20054;-81
2022/07/09 06:20:44;;;;;;;0.28;0.28;;;17.50;99.90;;;;;;5120312;27;20086;-81
2022/07/09 06:23:12;;;;;;;0.00;0.00;;;17.60;99.90;;;;;;5103328;27;20103;-81
2022/07/09 06:25:39;;;;;;;0.10;0.08;;;17.70;99.90;;;;;;5120099;27;20078;-81
2022/07/09 06:28:05;;;;;;;0.00;0.00;;;17.80;99.90;;;;;;5103079;27;20130;-81
2022/07/09 06:30:31;;;;;;;0.00;0.00;;;17.90;99.90;;;;;;5103111;27;20480;-81
2022/07/09 06:32:57;;;;;;;0.00;0.00;;;17.90;99.90;;;;;;5102320;27;20123;-81
2022/07/09 06:35:23;;;;;;;0.10;0.10;;;18.00;99.90;;;;;;5120132;27;20047;-80
2022/07/09 06:37:51;;;;;;;0.00;0.00;;;18.00;99.90;;;;;;5120057;27;20047;-81
2022/07/09 06:40:17;;;;;;;0.00;0.00;;;18.00;99.90;;;;;;5119915;27;20043;-81
2022/07/09 06:42:42;;;;;;;0.00;0.00;;;18.10;99.90;;;;;;5102952;27;20204;-81
2022/07/09 06:45:09;;;;;;;0.10;0.00;;;18.10;99.90;;;;;;5119885;27;20050;-81
2022/07/09 06:47:35;;;;;;;0.10;0.10;;;18.10;99.90;;;;;;5102531;27;20417;-81
2022/07/09 06:50:01;;;;;;;0.00;0.00;;;18.20;99.90;;;;;;5119294;27;20134;-81
2022/07/09 06:52:27;;;;;;;0.00;0.00;;;18.10;99.90;;;;;;5119754;27;20146;-81
2022/07/09 06:54:53;;;;;;;0.00;0.00;;;18.20;99.90;;;;;;5101951;27;20146;-81
2022/07/09 06:57:19;;;;;;;0.30;0.20;;;18.20;99.90;;;;;;5119579;27;20050;-81
2022/07/09 06:59:45;;;;;;;0.20;0.10;;;18.20;99.90;;;;;;5102079;27;20407;-81
2022/07/09 07:02:12;;;;;;;0.00;0.00;;;18.20;99.90;;;;;;5119150;27;20039;-81
2022/07/09 07:04:37;;;;;;;0.00;0.00;;;18.20;99.90;;;;;;5119071;27;20104;-81
2022/07/09 07:07:04;;;;;;;0.03;0.00;;;18.20;99.90;;;;;;5119100;27;20036;-81
2022/07/09 07:09:32;;;;;;;0.00;0.00;;;18.20;99.90;;;;;;5119208;27;20399;-81
2022/07/09 07:11:58;;;;;;;0.00;0.00;;;18.20;99.90;;;;;;5101482;27;20043;-81
2022/07/09 07:14:24;;;;;;;0.10;0.00;;;18.30;99.90;;;;;;5102125;27;20509;-81
2022/07/09 07:16:50;;;;;;;0.00;0.00;;;18.30;99.90;;;;;;5101976;27;20399;-81
2022/07/09 07:19:17;;;;;;;0.00;0.00;;;18.40;99.90;;;;;;5119021;27;20051;-81
2022/07/09 07:21:42;;;;;;;0.00;0.00;;;18.40;99.90;;;;;;5118565;27;20039;-81
2022/07/09 07:24:08;;;;;;;0.00;0.00;;;18.40;99.90;;;;;;5101650;27;20134;-81
2022/07/09 07:26:34;;;;;;;0.00;0.00;;;18.50;99.90;;;;;;5101935;27;20054;-81
2022/07/09 07:29:00;;;;;;;0.00;0.00;;;18.60;99.90;;;;;;5119581;27;20359;-81
2022/07/09 07:31:29;;;;;;;0.00;0.00;;;18.70;99.90;;;;;;5101972;27;20051;-81
2022/07/09 07:33:55;;;;;;;0.00;0.00;;;18.70;99.90;;;;;;5101207;27;20138;-81
2022/07/09 07:36:20;;;;;;;0.03;0.00;;;18.80;99.90;;;;;;5119184;27;20074;-81
2022/07/09 07:38:49;;;;;;;0.00;0.00;;;18.90;99.90;;;;;;5101829;27;20402;-81
2022/07/09 07:41:16;;;;;;;0.00;0.00;;;18.90;99.90;;;;;;5118510;27;20069;-81
2022/07/09 07:43:42;;;;;;;0.00;0.00;;;19.00;99.90;;;;;;5101606;27;20134;-81
2022/07/09 07:46:08;;;;;;;0.00;0.00;;;19.00;99.90;;;;;;5118621;27;20139;-81
2022/07/09 07:48:35;;;;;;;0.00;0.00;;;19.00;99.90;;;;;;5118569;27;20039;-81
2022/07/09 07:51:02;;;;;;;0.00;0.00;;;19.00;99.90;;;;;;5118605;27;20089;-81
2022/07/09 07:53:30;;;;;;;0.00;0.00;;;18.90;99.90;;;;;;5118148;27;20125;-81
2022/07/09 07:55:56;;;;;;;0.00;0.00;;;18.90;99.90;;;;;;5119441;27;20061;-81
2022/07/09 07:58:22;;;;;;;0.00;0.00;;;18.90;99.90;;;;;;5118511;27;20069;-81
2022/07/09 08:00:47;;;;;;;0.00;0.00;;;18.90;99.90;;;;;;5118261;27;20043;-81
2022/07/09 08:03:13;;;;;;;0.13;0.00;;;18.90;99.90;;;;;;5101381;27;20088;-81
2022/07/09 08:05:39;;;;;;;0.00;0.00;;;18.80;99.90;;;;;;5118010;27;20039;-81
2022/07/09 08:08:04;;;;;;;1.08;0.10;;;18.80;99.90;;;;;;5117916;27;20047;-81
2022/07/09 08:10:30;;;;;;;0.00;0.00;;;18.80;99.90;;;;;;5101303;27;20364;-81
2022/07/09 08:12:56;;;;;;;0.65;0.17;;;18.80;99.90;;;;;;5100491;27;20054;-81
2022/07/09 08:15:21;;;;;;;0.43;0.30;;;18.70;99.90;;;;;;5101150;27;20051;-81
2022/07/09 08:17:47;;;;;;;0.00;0.00;;;18.70;99.90;;;;;;5101060;27;20079;-81
2022/07/09 08:20:13;;;;;;;0.00;0.00;;;18.60;99.90;;;;;;5118174;27;20064;-81
2022/07/09 08:22:38;;;;;;;0.00;0.00;;;18.60;99.90;;;;;;5117106;27;20063;-81
2022/07/09 08:25:05;;;;;;;0.00;0.00;;;18.60;99.90;;;;;;5117947;27;20035;-81
2022/07/09 08:27:30;;;;;;;0.00;0.00;;;18.70;99.90;;;;;;5117718;27;20104;-81
2022/07/09 08:29:56;;;;;;;0.00;0.00;;;18.80;99.90;;;;;;5117443;27;20031;-81
2022/07/09 08:32:22;;;;;;;0.00;0.00;;;18.90;99.90;;;;;;5116873;27;20048;-81
2022/07/09 08:34:47;;;;;;;0.00;0.00;;;19.10;99.90;;;;;;5100063;27;20055;-81
2022/07/09 08:37:16;;;;;;;0.00;0.00;;;19.20;99.90;;;;;;5100221;27;20513;-82
2022/07/09 08:39:41;;;;;;;0.10;0.03;;;19.20;99.90;;;;;;5100605;27;20073;-81
2022/07/09 08:42:12;;;;;;;0.00;0.00;;;19.30;99.90;;;;;;5117333;27;20047;-82
2022/07/09 08:44:39;;;;;;;0.25;0.25;;;19.40;99.90;;;;;;5117701;27;20047;-81
2022/07/09 08:47:05;;;;;;;0.00;0.00;;;19.50;99.90;;;;;;5117838;27;20039;-81
2022/07/09 08:49:31;;;;;;;0.05;0.00;;;19.80;99.90;;;;;;5117465;27;20043;-81
2022/07/09 08:51:57;;;;;;;0.00;0.00;;;20.00;99.90;;;;;;5099911;27;20051;-81
2022/07/09 08:54:23;;;;;;;0.00;0.00;;;20.30;99.90;;;;;;5109183;27;20051;-82
2022/07/09 08:56:52;;;;;;;0.00;0.00;;;20.30;99.90;;;;;;5114835;27;20669;-82
2022/07/09 08:59:18;;;;;;;0.00;0.00;;;20.40;99.90;;;;;;5097554;27;20051;-82
2022/07/09 09:01:44;;;;;;;0.00;0.00;;;20.50;99.90;;;;;;5115037;27;20046;-82
2022/07/09 09:04:10;;;;;;;0.00;0.00;;;20.50;99.90;;;;;;5098030;27;20047;-82
2022/07/09 09:06:42;;;;;;;6.97;0.80;;;20.40;99.90;;;;;;5115373;27;20043;-82
2022/07/09 09:09:10;;;;;;;0.47;0.10;;;20.40;99.90;;;;;;5115576;27;20047;-82
2022/07/09 09:11:37;;;;;;;0.63;0.20;;;20.40;99.90;;;;;;5097342;27;20051;-82
2022/07/09 09:14:03;;;;;;;0.00;0.00;;;20.50;99.90;;;;;;5114311;27;20051;-82
2022/07/09 09:16:29;;;;;;;0.00;0.00;;;20.60;99.90;;;;;;5097345;27;20059;-82
2022/07/09 09:18:56;;;;;;;0.00;0.00;;;20.60;99.90;;;;;;5114951;27;20490;-82
2022/07/09 09:21:26;;;;;;;1.67;0.52;;;20.60;99.90;;;;;;5114885;27;20058;-81
2022/07/09 09:23:58;;;;;;;0.00;0.00;;;20.70;99.90;;;;;;5097461;27;20490;-81
2022/07/09 09:26:28;;;;;;;0.00;0.00;;;20.90;99.90;;;;;;5098456;27;20062;-81
2022/07/09 09:29:00;;;;;;;0.00;0.00;;;21.10;99.90;;;;;;5097057;27;20051;-81
2022/07/09 09:31:26;;;;;;;0.00;0.00;;;21.40;99.90;;;;;;5114213;27;20045;-82
2022/07/09 09:34:09;;;;;;;0.00;0.00;;;21.40;99.90;;;;;;5096050;27;20146;-82
2022/07/09 09:36:38;;;;;;;0.00;0.00;;;21.40;99.90;;;;;;5114862;28;20189;-82
2022/07/09 09:39:20;;;;;;;0.10;0.00;;;21.50;99.90;;;;;;5096905;28;20575;-82
2022/07/09 09:41:51;;;;;;;0.05;0.00;;;21.50;99.90;;;;;;5114458;28;20083;-81
2022/07/09 09:44:29;;;;;;;0.00;0.00;;;21.50;99.90;;;;;;5095305;28;20055;-82
2022/07/09 09:46:57;;;;;;;0.00;0.00;;;21.50;99.90;;;;;;5094451;28;20059;-82
2022/07/09 09:49:23;;;;;;;0.00;0.00;;;21.80;99.90;;;;;;5079525;28;20058;-82
2022/07/09 09:51:56;;;;;;;0.85;0.30;;;22.00;99.90;;;;;;5079550;28;20040;-82
2022/07/09 09:54:22;;;;;;;0.00;0.00;;;22.10;99.90;;;;;;5096163;28;20039;-82
2022/07/09 09:56:49;;;;;;;0.00;0.00;;;22.20;99.90;;;;;;5079405;28;20047;-82
2022/07/09 09:59:16;;;;;;;0.00;0.00;;;22.20;99.90;;;;;;5096155;28;20483;-82
2022/07/09 10:01:43;;;;;;;0.40;0.00;;;22.20;99.90;;;;;;5079711;28;20100;-82
2022/07/09 10:04:14;;;;;;;0.00;0.00;;;22.30;99.90;;;;;;5079581;28;20043;-82
2022/07/09 10:06:41;;;;;;;0.00;0.00;;;22.30;99.90;;;;;;5095823;28;20239;-82
2022/07/09 10:09:08;;;;;;;0.00;0.00;;;22.20;99.90;;;;;;5096133;28;20417;-82
2022/07/09 10:11:44;;;;;;;0.00;0.00;;;22.10;99.90;;;;;;5078696;28;20130;-82
2022/07/09 10:14:24;;;;;;;0.00;0.00;;;21.80;99.90;;;;;;5096072;28;20047;-81
2022/07/09 10:16:54;;;;;;;0.00;0.00;;;21.60;99.90;;;;;;5096122;28;20132;-82
2022/07/09 10:19:30;;;;;;;0.30;0.10;;;21.60;99.90;;;;;;5079123;28;20399;-82
2022/07/09 10:21:57;;;;;;;0.00;0.00;;;21.90;99.90;;;;;;5079108;28;20055;-82
2022/07/09 10:24:31;;;;;;;0.00;0.00;;;22.10;99.90;;;;;;5095854;28;20130;-82
2022/07/09 10:27:05;;;;;;;0.00;0.00;;;22.30;99.90;;;;;;5078934;28;20056;-82
2022/07/09 10:29:32;;;;;;;0.00;0.00;;;22.50;99.90;;;;;;5095868;28;20088;-82
2022/07/09 10:31:58;;;;;;;0.00;0.00;;;22.80;99.90;;;;;;5078829;28;20069;-83
2022/07/09 10:35:04;;;;;;;0.00;0.00;;;22.90;99.90;;;;;;5096463;28;20048;-82
2022/07/09 10:37:52;;;;;;;0.10;0.10;;;22.80;99.90;;;;;;5095826;28;20483;-83
2022/07/09 10:40:19;;;;;;;0.00;0.00;;;22.60;99.90;;;;;;5077813;28;20127;-82
2022/07/09 10:42:56;;;;;;;0.10;0.00;;;22.60;99.90;;;;;;5078776;28;20124;-82
2022/07/09 10:45:27;;;;;;;0.00;0.00;;;22.50;99.90;;;;;;5079036;28;20052;-82
2022/07/09 10:47:55;;;;;;;0.00;0.00;;;22.60;99.90;;;;;;5095777;28;20048;-82
2022/07/09 10:50:25;;;;;;;0.00;0.00;;;22.90;99.90;;;;;;5079438;28;20051;-83
2022/07/09 10:52:52;;;;;;;0.35;0.10;;;23.20;99.90;;;;;;5078732;28;20044;-83
2022/07/09 10:55:19;;;;;;;0.00;0.00;;;23.10;99.90;;;;;;5110239;27;20035;-83
2022/07/09 10:57:45;;;;;;;0.10;0.03;;;22.90;99.90;;;;;;5118912;27;20035;-83
2022/07/09 11:00:23;;;;;;;0.00;0.00;;;22.90;99.90;;;;;;5102296;27;20452;-82
2022/07/09 11:03:05;;;;;;;1.55;0.52;;;23.00;99.90;;;;;;5086730;27;20043;-83
2022/07/09 11:05:33;;;;;;;0.00;0.00;;;22.90;99.90;;;;;;5102047;27;20437;-83
2022/07/09 11:08:07;;;;;;;0.00;0.00;;;22.80;99.90;;;;;;5118828;27;20051;-82
2022/07/09 11:10:38;;;;;;;0.00;0.00;;;22.70;99.90;;;;;;5102393;27;20054;-83
2022/07/09 11:13:06;;;;;;;0.00;0.00;;;22.80;99.90;;;;;;5118384;27;20099;-82
2022/07/09 11:15:41;;;;;;;0.00;0.00;;;22.80;99.90;;;;;;5119180;27;20133;-83
2022/07/09 11:18:08;;;;;;;0.00;0.00;;;22.80;99.90;;;;;;5102789;27;20414;-82
2022/07/09 11:20:47;;;;;;;0.00;0.00;;;22.80;99.90;;;;;;5119294;27;20050;-83
2022/07/09 11:23:16;;;;;;;0.00;0.00;;;22.90;99.90;;;;;;5118652;27;20050;-83
2022/07/09 11:25:46;;;;;;;0.00;0.00;;;23.00;99.90;;;;;;5102165;27;20047;-83
2022/07/09 11:28:26;;;;;;;1.02;0.35;;;23.10;99.90;;;;;;5118833;27;20096;-83
2022/07/09 11:31:03;;;;;;;0.00;0.00;;;23.20;99.90;;;;;;5119166;27;20050;-82
2022/07/09 11:34:10;;;;;;;0.00;0.00;;;23.40;99.90;;;;;;5101924;27;20039;-83
2022/07/09 11:36:20;;;;;;;0.00;0.00;;;23.60;99.90;;;;;;5118981;27;20112;-83
2022/07/09 11:38:52;;;;;;;0.00;0.00;;;23.70;99.90;;;;;;5102042;27;20054;-83
2022/07/09 11:41:21;;;;;;;0.00;0.00;;;23.80;99.90;;;;;;5101860;27;20118;-83
2022/07/09 11:43:51;;;;;;;0.00;0.00;;;23.80;99.90;;;;;;5101795;27;20478;-83
2022/07/09 11:46:20;;;;;;;0.10;0.10;;;23.70;99.90;;;;;;5101405;27;20586;-83
2022/07/09 11:48:53;;;;;;;0.00;0.00;;;23.50;99.90;;;;;;5101693;27;20047;-83
2022/07/09 11:51:33;;;;;;;0.45;0.15;;;23.10;99.90;;;;;;5118619;27;20516;-83
2022/07/09 11:54:02;;;;;;;0.38;0.10;;;22.80;99.90;;;;;;5118476;27;20134;-83
2022/07/09 11:56:40;;;;;;;0.00;0.00;;;22.60;99.90;;;;;;5118310;27;20126;-83
2022/07/09 11:59:05;;;;;;;0.00;0.00;;;22.70;99.90;;;;;;5118396;27;20130;-83
2022/07/09 12:01:31;;;;;;;0.00;0.00;;;23.00;99.90;;;;;;5118207;27;20134;-83
2022/07/09 12:03:57;;;;;;;0.28;0.20;;;23.50;99.90;;;;;;5117905;27;20039;-83
2022/07/09 12:06:25;;;;;;;0.00;0.00;;;23.80;99.90;;;;;;5117265;28;20051;-83
2022/07/09 12:09:02;;;;;;;0.05;0.00;;;23.60;99.90;;;;;;5101535;27;20489;-82
2022/07/09 12:11:29;;;;;;;0.05;0.05;;;23.30;99.90;;;;;;5118136;27;20043;-82
2022/07/09 12:13:55;;;;;;;0.10;0.10;;;23.10;99.90;;;;;;5117086;27;20043;-83
2022/07/09 12:16:21;;;;;;;0.00;0.00;;;23.00;99.90;;;;;;5118132;27;20055;-82
2022/07/09 12:18:47;;;;;;;0.00;0.00;;;23.00;99.90;;;;;;5118181;27;20142;-82
2022/07/09 12:21:12;;;;;;;0.00;0.00;;;23.10;99.90;;;;;;5118046;27;20043;-83
2022/07/09 12:23:38;;;;;;;0.00;0.00;;;23.20;99.90;;;;;;5117814;27;20051;-83
2022/07/09 12:26:04;;;;;;;0.00;0.00;;;23.30;99.90;;;;;;5117745;27;20505;-83
2022/07/09 12:28:29;;;;;;;0.00;0.00;;;23.50;99.90;;;;;;5117359;27;20118;-83
2022/07/09 12:30:55;;;;;;;0.00;0.00;;;23.40;99.90;;;;;;5117815;27;20085;-82
2022/07/09 12:33:20;;;;;;;0.22;0.10;;;23.60;99.90;;;;;;5100348;27;20258;-82
2022/07/09 12:35:49;;;;;;;0.00;0.00;;;23.60;99.90;;;;;;5101050;27;20596;-82
2022/07/09 12:38:15;;;;;;;0.00;0.00;;;23.70;98.60;;;;;;5117575;27;20043;-83
2022/07/09 12:40:43;;;;;;;0.00;0.00;;;23.80;99.90;;;;;;5117749;27;20050;-83
2022/07/09 12:43:08;;;;;;;0.00;0.00;;;23.80;99.90;;;;;;5099841;27;20409;-83
2022/07/09 12:45:34;;;;;;;0.00;0.00;;;23.80;99.90;;;;;;5117234;27;20047;-82
2022/07/09 12:48:03;;;;;;;3.47;0.47;;;23.70;98.60;;;;;;5117723;27;20039;-83